sensor_id;sensor_type;location;lat;lon;timestamp;temperature;humidity
67748;HTU21D;54543;50.712;6.070;2023-02-26T00:00:22;-0.96;79.69
67748;HTU21D;54543;50.712;6.070;2023-02-26T00:02:48;-0.98;79.78
67748;HTU21D;54543;50.712;6.070;2023-02-26T00:05:14;-1.01;79.91
67748;HTU21D;54543;50.712;6.070;2023-02-26T00:07:41;-1.01;80.02
67748;HTU21D;54543;50.712;6.070;2023-02-26T00:10:09;-1.02;80.11
67748;HTU21D;54543;50.712;6.070;2023-02-26T00:12:36;-1.06;80.07
67748;HTU21D;54543;50.712;6.070;2023-02-26T00:15:02;-1.09;80.20
67748;HTU21D;54543;50.712;6.070;2023-02-26T00:19:56;-1.14;80.20
67748;HTU21D;54543;50.712;6.070;2023-02-26T00:22:22;-1.17;80.29
67748;HTU21D;54543;50.712;6.070;2023-02-26T00:24:48;-1.20;80.31
67748;HTU21D;54543;50.712;6.070;2023-02-26T00:27:13;-1.21;80.49
67748;HTU21D;54543;50.712;6.070;2023-02-26T00:29:39;-1.25;80.64
67748;HTU21D;54543;50.712;6.070;2023-02-26T00:32:05;-1.27;80.72
67748;HTU21D;54543;50.712;6.070;2023-02-26T00:34:33;-1.28;80.91
67748;HTU21D;54543;50.712;6.070;2023-02-26T00:42:34;-1.34;80.88
67748;HTU21D;54543;50.712;6.070;2023-02-26T00:45:01;-1.36;80.88
67748;HTU21D;54543;50.712;6.070;2023-02-26T00:55:27;-1.45;81.40
67748;HTU21D;54543;50.712;6.070;2023-02-26T00:57:52;-1.44;81.52
67748;HTU21D;54543;50.712;6.070;2023-02-26T01:00:18;-1.44;81.53
67748;HTU21D;54543;50.712;6.070;2023-02-26T01:02:44;-1.42;81.55
67748;HTU21D;54543;50.712;6.070;2023-02-26T01:05:10;-1.41;81.70
67748;HTU21D;54543;50.712;6.070;2023-02-26T01:07:49;-1.36;81.74
67748;HTU21D;54543;50.712;6.070;2023-02-26T01:10:19;-1.29;81.75
67748;HTU21D;54543;50.712;6.070;2023-02-26T01:12:45;-1.23;81.67
67748;HTU21D;54543;50.712;6.070;2023-02-26T01:15:11;-1.17;81.97
67748;HTU21D;54543;50.712;6.070;2023-02-26T01:18:04;-1.12;82.02
67748;HTU21D;54543;50.712;6.070;2023-02-26T01:20:39;-1.08;81.68
67748;HTU21D;54543;50.712;6.070;2023-02-26T01:23:26;-1.03;81.78
67748;HTU21D;54543;50.712;6.070;2023-02-26T01:25:59;-0.99;81.55
67748;HTU21D;54543;50.712;6.070;2023-02-26T01:28:26;-0.95;81.50
67748;HTU21D;54543;50.712;6.070;2023-02-26T01:30:54;-0.87;81.42
67748;HTU21D;54543;50.712;6.070;2023-02-26T01:33:31;-0.83;81.62
67748;HTU21D;54543;50.712;6.070;2023-02-26T01:36:07;-0.76;81.42
67748;HTU21D;54543;50.712;6.070;2023-02-26T01:49:13;-0.54;81.36
67748;HTU21D;54543;50.712;6.070;2023-02-26T01:51:55;-0.51;81.15
67748;HTU21D;54543;50.712;6.070;2023-02-26T01:54:24;-0.46;81.17
67748;HTU21D;54543;50.712;6.070;2023-02-26T01:57:00;-0.43;81.20
67748;HTU21D;54543;50.712;6.070;2023-02-26T01:59:30;-0.39;81.31
67748;HTU21D;54543;50.712;6.070;2023-02-26T02:01:57;-0.37;81.09
67748;HTU21D;54543;50.712;6.070;2023-02-26T02:04:24;-0.35;81.12
67748;HTU21D;54543;50.712;6.070;2023-02-26T02:06:50;-0.31;80.91
67748;HTU21D;54543;50.712;6.070;2023-02-26T02:09:16;-0.28;80.91
67748;HTU21D;54543;50.712;6.070;2023-02-26T02:14:45;-0.25;80.90
67748;HTU21D;54543;50.712;6.070;2023-02-26T02:31:25;-0.17;81.06
67748;HTU21D;54543;50.712;6.070;2023-02-26T02:33:57;-0.17;80.98
67748;HTU21D;54543;50.712;6.070;2023-02-26T02:36:33;-0.16;80.95
67748;HTU21D;54543;50.712;6.070;2023-02-26T02:39:14;-0.15;80.90
67748;HTU21D;54543;50.712;6.070;2023-02-26T02:42:18;-0.13;80.94
67748;HTU21D;54543;50.712;6.070;2023-02-26T02:44:54;-0.14;80.91
67748;HTU21D;54543;50.712;6.070;2023-02-26T02:47:21;-0.13;80.92
67748;HTU21D;54543;50.712;6.070;2023-02-26T02:49:55;-0.14;80.94
67748;HTU21D;54543;50.712;6.070;2023-02-26T02:52:37;-0.13;81.08
67748;HTU21D;54543;50.712;6.070;2023-02-26T02:55:07;-0.12;81.04
67748;HTU21D;54543;50.712;6.070;2023-02-26T02:57:42;-0.11;81.06
67748;HTU21D;54543;50.712;6.070;2023-02-26T03:00:10;-0.10;81.01
67748;HTU21D;54543;50.712;6.070;2023-02-26T03:02:50;-0.10;81.01
67748;HTU21D;54543;50.712;6.070;2023-02-26T03:05:17;-0.09;80.97
67748;HTU21D;54543;50.712;6.070;2023-02-26T03:07:53;-0.08;80.94
67748;HTU21D;54543;50.712;6.070;2023-02-26T03:10:20;-0.08;80.91
67748;HTU21D;54543;50.712;6.070;2023-02-26T03:12:45;-0.11;80.87
67748;HTU21D;54543;50.712;6.070;2023-02-26T03:15:11;-0.13;80.92
67748;HTU21D;54543;50.712;6.070;2023-02-26T03:18:05;-0.16;81.14
67748;HTU21D;54543;50.712;6.070;2023-02-26T03:20:45;-0.25;81.04
67748;HTU21D;54543;50.712;6.070;2023-02-26T03:23:20;-0.34;81.05
67748;HTU21D;54543;50.712;6.070;2023-02-26T03:25:54;-0.43;81.24
67748;HTU21D;54543;50.712;6.070;2023-02-26T03:28:37;-0.51;81.33
67748;HTU21D;54543;50.712;6.070;2023-02-26T03:31:32;-0.61;81.71
67748;HTU21D;54543;50.712;6.070;2023-02-26T03:34:17;-0.68;82.17
67748;HTU21D;54543;50.712;6.070;2023-02-26T03:37:01;-0.73;82.30
67748;HTU21D;54543;50.712;6.070;2023-02-26T03:39:32;-0.80;82.40
67748;HTU21D;54543;50.712;6.070;2023-02-26T03:44:43;-0.93;82.62
67748;HTU21D;54543;50.712;6.070;2023-02-26T03:47:13;-0.97;82.58
67748;HTU21D;54543;50.712;6.070;2023-02-26T03:49:44;-1.03;83.10
67748;HTU21D;54543;50.712;6.070;2023-02-26T03:52:11;-1.09;83.09
67748;HTU21D;54543;50.712;6.070;2023-02-26T03:54:41;-1.14;83.19
67748;HTU21D;54543;50.712;6.070;2023-02-26T03:57:07;-1.18;83.20
67748;HTU21D;54543;50.712;6.070;2023-02-26T03:59:34;-1.21;83.32
67748;HTU21D;54543;50.712;6.070;2023-02-26T04:02:10;-1.27;83.52
67748;HTU21D;54543;50.712;6.070;2023-02-26T04:04:50;-1.30;83.71
67748;HTU21D;54543;50.712;6.070;2023-02-26T04:07:17;-1.33;83.87
67748;HTU21D;54543;50.712;6.070;2023-02-26T04:09:45;-1.34;84.71
67748;HTU21D;54543;50.712;6.070;2023-02-26T04:12:11;-1.36;84.85
67748;HTU21D;54543;50.712;6.070;2023-02-26T04:14:37;-1.40;84.70
67748;HTU21D;54543;50.712;6.070;2023-02-26T04:17:03;-1.43;84.21
67748;HTU21D;54543;50.712;6.070;2023-02-26T04:19:28;-1.46;84.13
67748;HTU21D;54543;50.712;6.070;2023-02-26T04:21:54;-1.50;84.35
67748;HTU21D;54543;50.712;6.070;2023-02-26T04:24:20;-1.54;84.42
67748;HTU21D;54543;50.712;6.070;2023-02-26T04:26:45;-1.57;84.61
67748;HTU21D;54543;50.712;6.070;2023-02-26T04:29:11;-1.60;84.73
67748;HTU21D;54543;50.712;6.070;2023-02-26T04:31:36;-1.62;84.59
67748;HTU21D;54543;50.712;6.070;2023-02-26T04:34:02;-1.65;84.75
67748;HTU21D;54543;50.712;6.070;2023-02-26T04:36:28;-1.67;85.00
67748;HTU21D;54543;50.712;6.070;2023-02-26T04:38:54;-1.70;85.17
67748;HTU21D;54543;50.712;6.070;2023-02-26T04:41:19;-1.73;84.87
67748;HTU21D;54543;50.712;6.070;2023-02-26T04:43:45;-1.75;84.87
67748;HTU21D;54543;50.712;6.070;2023-02-26T04:46:10;-1.74;84.95
67748;HTU21D;54543;50.712;6.070;2023-02-26T04:48:36;-1.76;84.96
67748;HTU21D;54543;50.712;6.070;2023-02-26T04:51:02;-1.79;84.86
67748;HTU21D;54543;50.712;6.070;2023-02-26T04:53:27;-1.82;84.79
67748;HTU21D;54543;50.712;6.070;2023-02-26T04:55:53;-1.85;84.88
67748;HTU21D;54543;50.712;6.070;2023-02-26T04:58:18;-1.88;85.22
67748;HTU21D;54543;50.712;6.070;2023-02-26T05:00:50;-1.90;85.03
67748;HTU21D;54543;50.712;6.070;2023-02-26T05:03:16;-1.94;84.97
67748;HTU21D;54543;50.712;6.070;2023-02-26T05:05:43;-1.97;85.19
67748;HTU21D;54543;50.712;6.070;2023-02-26T05:08:08;-2.00;85.13
67748;HTU21D;54543;50.712;6.070;2023-02-26T05:10:34;-2.02;85.49
67748;HTU21D;54543;50.712;6.070;2023-02-26T05:13:00;-2.05;85.34
67748;HTU21D;54543;50.712;6.070;2023-02-26T05:15:25;-2.05;85.35
67748;HTU21D;54543;50.712;6.070;2023-02-26T05:17:51;-2.07;85.19
67748;HTU21D;54543;50.712;6.070;2023-02-26T05:20:16;-2.12;85.29
67748;HTU21D;54543;50.712;6.070;2023-02-26T05:22:42;-2.14;85.07
67748;HTU21D;54543;50.712;6.070;2023-02-26T05:25:09;-2.16;85.33
67748;HTU21D;54543;50.712;6.070;2023-02-26T05:27:36;-2.18;85.24
67748;HTU21D;54543;50.712;6.070;2023-02-26T05:30:01;-2.18;85.25
67748;HTU21D;54543;50.712;6.070;2023-02-26T05:32:27;-2.21;85.18
67748;HTU21D;54543;50.712;6.070;2023-02-26T05:34:53;-2.22;85.19
67748;HTU21D;54543;50.712;6.070;2023-02-26T05:37:18;-2.23;85.37
67748;HTU21D;54543;50.712;6.070;2023-02-26T05:39:44;-2.23;85.70
67748;HTU21D;54543;50.712;6.070;2023-02-26T05:42:09;-2.24;85.64
67748;HTU21D;54543;50.712;6.070;2023-02-26T05:44:35;-2.26;86.09
67748;HTU21D;54543;50.712;6.070;2023-02-26T05:47:01;-2.22;86.16
67748;HTU21D;54543;50.712;6.070;2023-02-26T05:49:27;-2.27;86.01
67748;HTU21D;54543;50.712;6.070;2023-02-26T05:51:52;-2.24;85.98
67748;HTU21D;54543;50.712;6.070;2023-02-26T05:54:18;-2.26;85.96
67748;HTU21D;54543;50.712;6.070;2023-02-26T05:56:43;-2.26;85.95
67748;HTU21D;54543;50.712;6.070;2023-02-26T05:59:09;-2.28;85.80
67748;HTU21D;54543;50.712;6.070;2023-02-26T06:01:35;-2.29;86.11
67748;HTU21D;54543;50.712;6.070;2023-02-26T06:04:03;-2.29;86.14
67748;HTU21D;54543;50.712;6.070;2023-02-26T06:06:28;-2.29;86.56
67748;HTU21D;54543;50.712;6.070;2023-02-26T06:08:54;-2.29;86.46
67748;HTU21D;54543;50.712;6.070;2023-02-26T06:11:19;-2.29;86.37
67748;HTU21D;54543;50.712;6.070;2023-02-26T06:13:45;-2.30;86.51
67748;HTU21D;54543;50.712;6.070;2023-02-26T06:16:10;-2.33;86.31
67748;HTU21D;54543;50.712;6.070;2023-02-26T06:18:36;-2.34;86.30
67748;HTU21D;54543;50.712;6.070;2023-02-26T06:21:02;-2.34;86.78
67748;HTU21D;54543;50.712;6.070;2023-02-26T06:23:27;-2.32;86.92
67748;HTU21D;54543;50.712;6.070;2023-02-26T06:25:53;-2.31;86.81
67748;HTU21D;54543;50.712;6.070;2023-02-26T06:28:19;-2.29;86.82
67748;HTU21D;54543;50.712;6.070;2023-02-26T06:30:45;-2.27;86.90
67748;HTU21D;54543;50.712;6.070;2023-02-26T06:33:11;-2.26;86.66
67748;HTU21D;54543;50.712;6.070;2023-02-26T06:35:36;-2.27;86.76
67748;HTU21D;54543;50.712;6.070;2023-02-26T06:38:02;-2.26;86.86
67748;HTU21D;54543;50.712;6.070;2023-02-26T06:40:28;-2.27;86.74
67748;HTU21D;54543;50.712;6.070;2023-02-26T06:42:55;-2.26;86.71
67748;HTU21D;54543;50.712;6.070;2023-02-26T06:45:21;-2.22;86.86
67748;HTU21D;54543;50.712;6.070;2023-02-26T06:47:47;-2.17;86.80
67748;HTU21D;54543;50.712;6.070;2023-02-26T06:50:13;-2.10;86.73
67748;HTU21D;54543;50.712;6.070;2023-02-26T06:52:38;-2.04;86.91
67748;HTU21D;54543;50.712;6.070;2023-02-26T06:55:04;-1.98;86.82
67748;HTU21D;54543;50.712;6.070;2023-02-26T06:57:29;-1.90;86.80
67748;HTU21D;54543;50.712;6.070;2023-02-26T06:59:55;-1.82;86.58
67748;HTU21D;54543;50.712;6.070;2023-02-26T07:02:21;-1.76;86.50
67748;HTU21D;54543;50.712;6.070;2023-02-26T07:04:47;-1.71;86.29
67748;HTU21D;54543;50.712;6.070;2023-02-26T07:07:13;-1.70;85.93
67748;HTU21D;54543;50.712;6.070;2023-02-26T07:09:39;-1.72;85.93
67748;HTU21D;54543;50.712;6.070;2023-02-26T07:12:05;-1.71;85.91
67748;HTU21D;54543;50.712;6.070;2023-02-26T07:14:32;-1.71;85.64
67748;HTU21D;54543;50.712;6.070;2023-02-26T07:16:58;-1.72;85.81
67748;HTU21D;54543;50.712;6.070;2023-02-26T07:19:24;-1.72;85.57
67748;HTU21D;54543;50.712;6.070;2023-02-26T07:21:50;-1.73;85.65
67748;HTU21D;54543;50.712;6.070;2023-02-26T07:24:16;-1.71;85.90
67748;HTU21D;54543;50.712;6.070;2023-02-26T07:26:41;-1.65;85.79
67748;HTU21D;54543;50.712;6.070;2023-02-26T07:29:07;-1.60;85.51
67748;HTU21D;54543;50.712;6.070;2023-02-26T07:31:32;-1.54;85.30
67748;HTU21D;54543;50.712;6.070;2023-02-26T07:33:58;-1.46;85.16
67748;HTU21D;54543;50.712;6.070;2023-02-26T07:36:24;-1.39;84.88
67748;HTU21D;54543;50.712;6.070;2023-02-26T07:38:49;-1.31;85.11
67748;HTU21D;54543;50.712;6.070;2023-02-26T07:41:15;-1.23;84.72
67748;HTU21D;54543;50.712;6.070;2023-02-26T07:43:41;-1.17;84.74
67748;HTU21D;54543;50.712;6.070;2023-02-26T07:46:07;-1.10;84.32
67748;HTU21D;54543;50.712;6.070;2023-02-26T07:48:33;-1.04;84.10
67748;HTU21D;54543;50.712;6.070;2023-02-26T07:50:59;-0.96;83.83
67748;HTU21D;54543;50.712;6.070;2023-02-26T07:53:25;-0.86;83.86
67748;HTU21D;54543;50.712;6.070;2023-02-26T07:55:50;-0.80;83.21
67748;HTU21D;54543;50.712;6.070;2023-02-26T07:58:16;-0.72;82.80
67748;HTU21D;54543;50.712;6.070;2023-02-26T08:00:42;-0.67;82.58
67748;HTU21D;54543;50.712;6.070;2023-02-26T08:03:07;-0.65;82.37
67748;HTU21D;54543;50.712;6.070;2023-02-26T08:05:33;-0.68;82.00
67748;HTU21D;54543;50.712;6.070;2023-02-26T08:07:59;-0.71;81.97
67748;HTU21D;54543;50.712;6.070;2023-02-26T08:10:26;-0.71;82.47
67748;HTU21D;54543;50.712;6.070;2023-02-26T08:12:52;-0.66;82.01
67748;HTU21D;54543;50.712;6.070;2023-02-26T08:15:18;-0.64;83.85
67748;HTU21D;54543;50.712;6.070;2023-02-26T08:17:43;-0.62;82.32
67748;HTU21D;54543;50.712;6.070;2023-02-26T08:20:10;-0.68;81.22
67748;HTU21D;54543;50.712;6.070;2023-02-26T08:22:36;-0.73;81.25
67748;HTU21D;54543;50.712;6.070;2023-02-26T08:25:03;-0.76;81.93
67748;HTU21D;54543;50.712;6.070;2023-02-26T08:27:28;-0.71;82.52
67748;HTU21D;54543;50.712;6.070;2023-02-26T08:29:54;-0.58;82.84
67748;HTU21D;54543;50.712;6.070;2023-02-26T08:32:20;-0.43;82.00
67748;HTU21D;54543;50.712;6.070;2023-02-26T08:34:47;-0.35;81.49
67748;HTU21D;54543;50.712;6.070;2023-02-26T08:37:12;-0.23;81.25
67748;HTU21D;54543;50.712;6.070;2023-02-26T08:39:38;-0.15;81.10
67748;HTU21D;54543;50.712;6.070;2023-02-26T08:42:05;-0.08;80.76
67748;HTU21D;54543;50.712;6.070;2023-02-26T08:44:31;-0.08;80.74
67748;HTU21D;54543;50.712;6.070;2023-02-26T08:46:57;-0.07;79.74
67748;HTU21D;54543;50.712;6.070;2023-02-26T08:49:23;-0.06;79.53
67748;HTU21D;54543;50.712;6.070;2023-02-26T08:51:48;0.01;79.59
67748;HTU21D;54543;50.712;6.070;2023-02-26T08:54:14;0.04;79.98
67748;HTU21D;54543;50.712;6.070;2023-02-26T08:56:40;0.13;79.88
67748;HTU21D;54543;50.712;6.070;2023-02-26T08:59:05;0.29;80.35
67748;HTU21D;54543;50.712;6.070;2023-02-26T09:01:31;0.40;80.12
67748;HTU21D;54543;50.712;6.070;2023-02-26T09:03:57;0.44;79.51
67748;HTU21D;54543;50.712;6.070;2023-02-26T09:06:22;0.46;79.46
67748;HTU21D;54543;50.712;6.070;2023-02-26T09:08:48;0.42;79.23
67748;HTU21D;54543;50.712;6.070;2023-02-26T09:11:14;0.48;79.53
67748;HTU21D;54543;50.712;6.070;2023-02-26T09:13:39;0.59;78.86
67748;HTU21D;54543;50.712;6.070;2023-02-26T09:16:06;0.63;78.21
67748;HTU21D;54543;50.712;6.070;2023-02-26T09:18:32;0.69;77.27
67748;HTU21D;54543;50.712;6.070;2023-02-26T09:20:58;0.72;77.87
67748;HTU21D;54543;50.712;6.070;2023-02-26T09:23:23;0.63;75.92
67748;HTU21D;54543;50.712;6.070;2023-02-26T09:25:53;0.62;77.21
67748;HTU21D;54543;50.712;6.070;2023-02-26T09:28:20;0.60;77.69
67748;HTU21D;54543;50.712;6.070;2023-02-26T09:30:46;0.53;77.32
67748;HTU21D;54543;50.712;6.070;2023-02-26T09:33:12;0.49;77.23
67748;HTU21D;54543;50.712;6.070;2023-02-26T09:35:37;0.52;77.42
67748;HTU21D;54543;50.712;6.070;2023-02-26T09:38:03;0.51;76.40
67748;HTU21D;54543;50.712;6.070;2023-02-26T09:40:46;0.61;75.05
67748;HTU21D;54543;50.712;6.070;2023-02-26T09:45:49;0.98;77.37
67748;HTU21D;54543;50.712;6.070;2023-02-26T09:48:18;1.07;76.86
67748;HTU21D;54543;50.712;6.070;2023-02-26T09:50:56;1.20;76.37
67748;HTU21D;54543;50.712;6.070;2023-02-26T09:53:25;1.39;76.53
67748;HTU21D;54543;50.712;6.070;2023-02-26T09:55:57;1.63;77.10
67748;HTU21D;54543;50.712;6.070;2023-02-26T10:01:22;1.90;74.43
67748;HTU21D;54543;50.712;6.070;2023-02-26T10:06:30;2.02;73.83
67748;HTU21D;54543;50.712;6.070;2023-02-26T10:14:34;2.00;74.07
67748;HTU21D;54543;50.712;6.070;2023-02-26T10:19:58;1.98;74.80
67748;HTU21D;54543;50.712;6.070;2023-02-26T10:22:39;1.95;73.70
67748;HTU21D;54543;50.712;6.070;2023-02-26T10:25:20;2.05;74.59
67748;HTU21D;54543;50.712;6.070;2023-02-26T10:30:38;2.24;73.44
67748;HTU21D;54543;50.712;6.070;2023-02-26T10:33:10;2.31;73.54
67748;HTU21D;54543;50.712;6.070;2023-02-26T10:35:44;2.40;73.77
67748;HTU21D;54543;50.712;6.070;2023-02-26T10:38:15;2.55;73.47
67748;HTU21D;54543;50.712;6.070;2023-02-26T10:41:09;2.65;69.97
67748;HTU21D;54543;50.712;6.070;2023-02-26T10:43:40;2.75;72.82
67748;HTU21D;54543;50.712;6.070;2023-02-26T10:51:16;2.87;71.79
67748;HTU21D;54543;50.712;6.070;2023-02-26T10:53:49;2.84;70.13
67748;HTU21D;54543;50.712;6.070;2023-02-26T10:56:24;2.82;70.50
67748;HTU21D;54543;50.712;6.070;2023-02-26T10:58:51;2.79;71.70
67748;HTU21D;54543;50.712;6.070;2023-02-26T11:01:20;2.73;71.42
67748;HTU21D;54543;50.712;6.070;2023-02-26T11:03:48;2.66;71.58
67748;HTU21D;54543;50.712;6.070;2023-02-26T11:06:20;2.57;71.65
67748;HTU21D;54543;50.712;6.070;2023-02-26T11:08:48;2.55;71.84
67748;HTU21D;54543;50.712;6.070;2023-02-26T11:11:40;2.55;67.27
67748;HTU21D;54543;50.712;6.070;2023-02-26T11:14:05;2.53;69.91
67748;HTU21D;54543;50.712;6.070;2023-02-26T11:16:33;2.56;71.26
67748;HTU21D;54543;50.712;6.070;2023-02-26T11:19:00;2.51;70.31
67748;HTU21D;54543;50.712;6.070;2023-02-26T11:21:29;2.39;70.61
67748;HTU21D;54543;50.712;6.070;2023-02-26T11:24:04;2.26;69.41
67748;HTU21D;54543;50.712;6.070;2023-02-26T11:26:34;2.10;70.04
67748;HTU21D;54543;50.712;6.070;2023-02-26T11:29:00;2.16;69.51
67748;HTU21D;54543;50.712;6.070;2023-02-26T11:31:26;2.27;66.07
67748;HTU21D;54543;50.712;6.070;2023-02-26T11:33:58;2.53;69.07
67748;HTU21D;54543;50.712;6.070;2023-02-26T11:36:25;3.00;66.74
67748;HTU21D;54543;50.712;6.070;2023-02-26T11:39:16;3.35;65.09
67748;HTU21D;54543;50.712;6.070;2023-02-26T11:41:45;3.56;66.91
67748;HTU21D;54543;50.712;6.070;2023-02-26T11:44:14;3.62;65.79
67748;HTU21D;54543;50.712;6.070;2023-02-26T11:46:51;3.68;64.54
67748;HTU21D;54543;50.712;6.070;2023-02-26T11:49:20;3.72;66.63
67748;HTU21D;54543;50.712;6.070;2023-02-26T11:51:47;3.67;60.97
67748;HTU21D;54543;50.712;6.070;2023-02-26T11:54:22;3.54;63.07
67748;HTU21D;54543;50.712;6.070;2023-02-26T11:56:48;3.55;65.86
67748;HTU21D;54543;50.712;6.070;2023-02-26T11:59:19;3.71;65.08
67748;HTU21D;54543;50.712;6.070;2023-02-26T12:01:46;3.88;65.91
67748;HTU21D;54543;50.712;6.070;2023-02-26T12:04:23;4.15;64.82
67748;HTU21D;54543;50.712;6.070;2023-02-26T12:06:51;4.28;63.17
67748;HTU21D;54543;50.712;6.070;2023-02-26T12:09:17;4.24;60.02
67748;HTU21D;54543;50.712;6.070;2023-02-26T12:17:37;3.70;63.08
67748;HTU21D;54543;50.712;6.070;2023-02-26T12:23:01;3.74;63.93
67748;HTU21D;54543;50.712;6.070;2023-02-26T12:30:59;4.30;59.09
67748;HTU21D;54543;50.712;6.070;2023-02-26T12:40:01;4.84;56.52
67748;HTU21D;54543;50.712;6.070;2023-02-26T12:51:13;4.00;62.02
67748;HTU21D;54543;50.712;6.070;2023-02-26T13:10:27;4.69;58.45
67748;HTU21D;54543;50.712;6.070;2023-02-26T13:13:16;5.01;53.25
67748;HTU21D;54543;50.712;6.070;2023-02-26T13:18:20;5.36;57.53
67748;HTU21D;54543;50.712;6.070;2023-02-26T13:21:08;5.27;56.70
67748;HTU21D;54543;50.712;6.070;2023-02-26T13:23:58;5.06;55.07
67748;HTU21D;54543;50.712;6.070;2023-02-26T13:26:28;4.93;60.28
67748;HTU21D;54543;50.712;6.070;2023-02-26T13:28:58;4.89;56.33
67748;HTU21D;54543;50.712;6.070;2023-02-26T13:31:47;4.83;56.20
67748;HTU21D;54543;50.712;6.070;2023-02-26T13:34:22;4.81;58.93
67748;HTU21D;54543;50.712;6.070;2023-02-26T13:36:49;4.84;56.64
67748;HTU21D;54543;50.712;6.070;2023-02-26T13:42:20;4.92;55.78
67748;HTU21D;54543;50.712;6.070;2023-02-26T13:47:39;5.03;56.87
67748;HTU21D;54543;50.712;6.070;2023-02-26T13:53:04;5.16;56.04
67748;HTU21D;54543;50.712;6.070;2023-02-26T13:55:50;5.28;49.08
67748;HTU21D;54543;50.712;6.070;2023-02-26T14:00:46;5.55;56.19
67748;HTU21D;54543;50.712;6.070;2023-02-26T14:11:24;5.35;50.08
67748;HTU21D;54543;50.712;6.070;2023-02-26T14:14:22;5.27;52.25
67748;HTU21D;54543;50.712;6.070;2023-02-26T14:19:37;5.25;53.87
67748;HTU21D;54543;50.712;6.070;2023-02-26T14:22:19;5.27;51.69
67748;HTU21D;54543;50.712;6.070;2023-02-26T14:24:54;5.09;54.35
67748;HTU21D;54543;50.712;6.070;2023-02-26T14:29:58;4.73;54.67
67748;HTU21D;54543;50.712;6.070;2023-02-26T14:32:33;4.73;55.45
67748;HTU21D;54543;50.712;6.070;2023-02-26T14:35:11;4.78;54.91
67748;HTU21D;54543;50.712;6.070;2023-02-26T14:37:39;4.81;57.13
67748;HTU21D;54543;50.712;6.070;2023-02-26T14:40:14;4.83;57.76
67748;HTU21D;54543;50.712;6.070;2023-02-26T14:42:52;4.89;56.64
67748;HTU21D;54543;50.712;6.070;2023-02-26T14:45:27;4.92;56.48
67748;HTU21D;54543;50.712;6.070;2023-02-26T14:47:56;4.97;56.42
67748;HTU21D;54543;50.712;6.070;2023-02-26T14:50:23;4.94;54.29
67748;HTU21D;54543;50.712;6.070;2023-02-26T14:55:43;4.88;53.49
67748;HTU21D;54543;50.712;6.070;2023-02-26T14:58:30;4.82;49.11
67748;HTU21D;54543;50.712;6.070;2023-02-26T15:01:05;4.79;56.12
67748;HTU21D;54543;50.712;6.070;2023-02-26T15:03:51;4.80;52.22
67748;HTU21D;54543;50.712;6.070;2023-02-26T15:06:49;4.88;52.25
67748;HTU21D;54543;50.712;6.070;2023-02-26T15:20:26;5.59;57.83
67748;HTU21D;54543;50.712;6.070;2023-02-26T15:25:28;5.94;57.89
67748;HTU21D;54543;50.712;6.070;2023-02-26T15:27:55;6.15;62.34
67748;HTU21D;54543;50.712;6.070;2023-02-26T15:30:21;6.37;63.37
67748;HTU21D;54543;50.712;6.070;2023-02-26T15:32:47;6.56;62.77
67748;HTU21D;54543;50.712;6.070;2023-02-26T15:35:19;6.70;62.52
67748;HTU21D;54543;50.712;6.070;2023-02-26T15:37:56;6.86;58.13
67748;HTU21D;54543;50.712;6.070;2023-02-26T15:40:24;7.00;63.44
67748;HTU21D;54543;50.712;6.070;2023-02-26T15:42:54;7.04;58.27
67748;HTU21D;54543;50.712;6.070;2023-02-26T15:45:39;7.03;47.98
67748;HTU21D;54543;50.712;6.070;2023-02-26T15:48:18;7.07;60.96
67748;HTU21D;54543;50.712;6.070;2023-02-26T15:50:47;7.17;64.88
67748;HTU21D;54543;50.712;6.070;2023-02-26T15:53:23;7.24;64.62
67748;HTU21D;54543;50.712;6.070;2023-02-26T15:55:53;7.33;64.91
67748;HTU21D;54543;50.712;6.070;2023-02-26T15:58:41;7.33;53.52
67748;HTU21D;54543;50.712;6.070;2023-02-26T16:01:20;7.29;57.39
67748;HTU21D;54543;50.712;6.070;2023-02-26T16:03:49;7.07;58.22
67748;HTU21D;54543;50.712;6.070;2023-02-26T16:06:22;6.70;48.21
67748;HTU21D;54543;50.712;6.070;2023-02-26T16:08:48;6.46;60.12
67748;HTU21D;54543;50.712;6.070;2023-02-26T16:11:14;6.20;59.95
67748;HTU21D;54543;50.712;6.070;2023-02-26T16:13:41;5.98;59.58
67748;HTU21D;54543;50.712;6.070;2023-02-26T16:16:14;5.84;58.35
67748;HTU21D;54543;50.712;6.070;2023-02-26T16:18:43;5.65;59.71
67748;HTU21D;54543;50.712;6.070;2023-02-26T16:21:25;5.33;56.52
67748;HTU21D;54543;50.712;6.070;2023-02-26T16:23:52;5.05;59.73
67748;HTU21D;54543;50.712;6.070;2023-02-26T16:29:01;4.72;58.50
67748;HTU21D;54543;50.712;6.070;2023-02-26T16:31:29;4.61;59.90
67748;HTU21D;54543;50.712;6.070;2023-02-26T16:34:19;4.49;58.87
67748;HTU21D;54543;50.712;6.070;2023-02-26T16:36:46;4.35;59.06
67748;HTU21D;54543;50.712;6.070;2023-02-26T16:39:19;4.19;58.61
67748;HTU21D;54543;50.712;6.070;2023-02-26T16:41:47;4.01;57.22
67748;HTU21D;54543;50.712;6.070;2023-02-26T16:44:37;3.84;55.80
67748;HTU21D;54543;50.712;6.070;2023-02-26T16:47:04;3.71;58.99
67748;HTU21D;54543;50.712;6.070;2023-02-26T16:49:32;3.59;59.10
67748;HTU21D;54543;50.712;6.070;2023-02-26T16:51:59;3.45;58.89
67748;HTU21D;54543;50.712;6.070;2023-02-26T16:54:48;3.32;55.76
67748;HTU21D;54543;50.712;6.070;2023-02-26T16:57:21;3.21;59.46
67748;HTU21D;54543;50.712;6.070;2023-02-26T16:59:54;3.13;59.44
67748;HTU21D;54543;50.712;6.070;2023-02-26T17:02:23;3.01;60.23
67748;HTU21D;54543;50.712;6.070;2023-02-26T17:04:53;2.91;59.57
67748;HTU21D;54543;50.712;6.070;2023-02-26T17:07:26;2.76;59.86
67748;HTU21D;54543;50.712;6.070;2023-02-26T17:09:59;2.66;60.16
67748;HTU21D;54543;50.712;6.070;2023-02-26T17:12:43;2.51;59.74
67748;HTU21D;54543;50.712;6.070;2023-02-26T17:15:28;2.42;60.50
67748;HTU21D;54543;50.712;6.070;2023-02-26T17:17:54;2.29;60.86
67748;HTU21D;54543;50.712;6.070;2023-02-26T17:20:26;2.20;61.14
67748;HTU21D;54543;50.712;6.070;2023-02-26T17:22:53;2.09;61.69
67748;HTU21D;54543;50.712;6.070;2023-02-26T17:25:20;2.00;61.38
67748;HTU21D;54543;50.712;6.070;2023-02-26T17:27:46;1.91;61.68
67748;HTU21D;54543;50.712;6.070;2023-02-26T17:30:15;1.81;61.89
67748;HTU21D;54543;50.712;6.070;2023-02-26T17:32:41;1.72;62.27
67748;HTU21D;54543;50.712;6.070;2023-02-26T17:35:08;1.63;62.13
67748;HTU21D;54543;50.712;6.070;2023-02-26T17:37:34;1.56;62.31
67748;HTU21D;54543;50.712;6.070;2023-02-26T17:40:01;1.50;62.45
67748;HTU21D;54543;50.712;6.070;2023-02-26T17:42:27;1.42;62.57
67748;HTU21D;54543;50.712;6.070;2023-02-26T17:44:52;1.37;62.79
67748;HTU21D;54543;50.712;6.070;2023-02-26T17:47:23;1.29;62.79
67748;HTU21D;54543;50.712;6.070;2023-02-26T17:49:50;1.23;63.27
67748;HTU21D;54543;50.712;6.070;2023-02-26T17:52:16;1.18;63.44
67748;HTU21D;54543;50.712;6.070;2023-02-26T17:54:41;1.12;63.47
67748;HTU21D;54543;50.712;6.070;2023-02-26T17:57:18;1.06;63.40
67748;HTU21D;54543;50.712;6.070;2023-02-26T17:59:44;1.01;63.97
67748;HTU21D;54543;50.712;6.070;2023-02-26T18:02:20;0.96;64.11
67748;HTU21D;54543;50.712;6.070;2023-02-26T18:04:46;0.91;64.01
67748;HTU21D;54543;50.712;6.070;2023-02-26T18:07:14;0.84;64.18
67748;HTU21D;54543;50.712;6.070;2023-02-26T18:09:42;0.80;64.46
67748;HTU21D;54543;50.712;6.070;2023-02-26T18:12:12;0.75;64.21
67748;HTU21D;54543;50.712;6.070;2023-02-26T18:14:38;0.72;64.47
67748;HTU21D;54543;50.712;6.070;2023-02-26T18:17:03;0.66;64.67
67748;HTU21D;54543;50.712;6.070;2023-02-26T18:19:29;0.61;64.66
67748;HTU21D;54543;50.712;6.070;2023-02-26T18:21:54;0.57;64.80